createdAt,value
2023-03-10T00:01:56.346Z,30.66
2023-03-10T00:07:12.007Z,30.64
2023-03-10T00:09:41.899Z,30.63
2023-03-10T00:12:30.230Z,30.65
2023-03-10T00:15:18.276Z,30.65
2023-03-10T00:17:48.504Z,30.62
2023-03-10T00:20:19.297Z,30.64
2023-03-10T00:23:07.277Z,30.63
2023-03-10T00:25:37.302Z,30.62
2023-03-10T00:28:07.157Z,30.62
2023-03-10T00:33:22.923Z,30.64
2023-03-10T00:36:13.742Z,30.64
2023-03-10T00:38:45.811Z,30.63
2023-03-10T00:41:21.348Z,30.66
2023-03-10T00:43:52.049Z,30.63
2023-03-10T00:46:22.652Z,30.62
2023-03-10T00:48:53.028Z,30.64
2023-03-10T00:51:24.161Z,30.64
2023-03-10T00:53:54.510Z,30.63
2023-03-10T00:56:27.427Z,30.64
2023-03-10T00:59:00.616Z,30.63
2023-03-10T01:01:34.819Z,30.63
2023-03-10T01:04:11.614Z,30.64
2023-03-10T01:06:41.883Z,30.64
2023-03-10T01:09:11.785Z,30.64
2023-03-10T01:11:42.228Z,30.65
2023-03-10T01:14:15.524Z,30.67
2023-03-10T01:16:45.818Z,30.68
2023-03-10T01:19:17.213Z,30.67
2023-03-10T01:21:47.296Z,30.68
2023-03-10T01:24:18.530Z,30.68
2023-03-10T01:26:48.656Z,30.68
2023-03-10T01:29:18.862Z,30.69
2023-03-10T01:31:48.982Z,30.70
2023-03-10T01:34:19.051Z,30.73
2023-03-10T01:36:49.790Z,30.74
2023-03-10T01:39:19.853Z,30.76
2023-03-10T01:41:49.696Z,30.76
2023-03-10T01:44:25.009Z,30.76
2023-03-10T01:46:58.108Z,30.78
2023-03-10T01:49:46.954Z,30.78
2023-03-10T01:52:26.015Z,30.77
2023-03-10T01:55:09.478Z,30.78
2023-03-10T01:57:48.491Z,30.76
2023-03-10T02:00:37.657Z,30.76
2023-03-10T02:03:19.323Z,30.78
2023-03-10T02:05:58.422Z,30.77
2023-03-10T02:08:33.489Z,30.78
2023-03-10T02:11:04.495Z,30.77
2023-03-10T02:13:34.563Z,30.79
2023-03-10T02:16:04.799Z,30.80
2023-03-10T02:18:35.201Z,30.80
2023-03-10T02:21:16.977Z,30.82
2023-03-10T02:24:14.142Z,30.84
2023-03-10T02:26:53.867Z,30.83
2023-03-10T02:29:58.363Z,30.85
2023-03-10T02:32:33.238Z,30.83
2023-03-10T02:35:04.254Z,30.83
2023-03-10T02:37:55.130Z,30.83
2023-03-10T02:40:40.204Z,30.83
2023-03-10T02:43:34.031Z,30.83
2023-03-10T02:46:11.954Z,30.84
2023-03-10T02:48:45.633Z,30.85
2023-03-10T02:51:37.235Z,30.87
2023-03-10T02:54:12.865Z,30.88
2023-03-10T02:56:45.040Z,30.88
2023-03-10T02:59:33.094Z,30.89
2023-03-10T03:02:03.469Z,30.89
2023-03-10T03:04:51.723Z,30.92
2023-03-10T03:07:21.913Z,30.92
2023-03-10T03:09:51.906Z,30.92
2023-03-10T03:12:21.759Z,30.93
2023-03-10T03:14:52.033Z,30.95
2023-03-10T03:17:40.285Z,30.93
2023-03-10T03:20:16.533Z,30.95
2023-03-10T03:23:04.911Z,30.93
2023-03-10T03:25:37.496Z,30.94
2023-03-10T03:28:10.219Z,30.94
2023-03-10T03:30:58.404Z,30.94
2023-03-10T03:33:47.205Z,30.95
2023-03-10T03:36:36.355Z,30.95
2023-03-10T03:39:10.843Z,30.96
2023-03-10T03:41:42.819Z,30.95
2023-03-10T03:44:13.528Z,30.95
2023-03-10T03:46:43.988Z,30.96
2023-03-10T03:49:32.165Z,30.97
2023-03-10T03:52:02.232Z,30.97
2023-03-10T03:54:32.618Z,30.98
2023-03-10T03:57:02.889Z,31.00
2023-03-10T04:02:19.577Z,31.03
2023-03-10T04:04:49.730Z,31.02
2023-03-10T04:07:20.178Z,31.03
2023-03-10T04:09:50.652Z,31.02
2023-03-10T04:12:20.806Z,31.03
2023-03-10T04:14:50.756Z,31.02
2023-03-10T04:17:20.993Z,31.02
2023-03-10T04:20:11.094Z,31.04
2023-03-10T04:22:44.698Z,31.04
2023-03-10T04:25:15.673Z,31.05
2023-03-10T04:28:04.954Z,31.05
2023-03-10T04:30:53.823Z,31.07
2023-03-10T04:33:46.956Z,31.09
2023-03-10T04:36:18.076Z,31.09
2023-03-10T04:39:07.332Z,31.10
2023-03-10T04:41:37.474Z,31.11
2023-03-10T04:44:09.503Z,31.12
2023-03-10T04:47:04.091Z,31.12
2023-03-10T04:49:35.132Z,31.12
2023-03-10T04:52:05.660Z,31.11
2023-03-10T04:57:21.609Z,31.15
2023-03-10T04:59:52.092Z,31.14
2023-03-10T05:02:22.421Z,31.14
2023-03-10T05:05:11.960Z,31.17
2023-03-10T05:07:45.557Z,31.18
2023-03-10T05:10:15.837Z,31.18
2023-03-10T05:12:45.838Z,31.21
2023-03-10T05:15:16.198Z,31.22
2023-03-10T05:18:04.321Z,31.23
2023-03-10T05:20:34.613Z,31.23
2023-03-10T05:23:05.023Z,31.24
2023-03-10T05:25:35.647Z,31.25
2023-03-10T05:28:06.090Z,31.24
2023-03-10T05:33:22.514Z,31.26
2023-03-10T05:36:13.531Z,31.24
2023-03-10T05:38:46.126Z,31.27
2023-03-10T05:41:18.479Z,31.28
2023-03-10T05:43:52.300Z,31.28
2023-03-10T05:46:23.572Z,31.29
2023-03-10T05:49:12.092Z,31.30
2023-03-10T05:51:42.449Z,31.31
2023-03-10T05:54:13.990Z,31.32
2023-03-10T05:56:44.753Z,31.34
2023-03-10T05:59:14.753Z,31.35
2023-03-10T06:01:44.847Z,31.36
2023-03-10T06:04:15.142Z,31.38
2023-03-10T06:06:45.221Z,31.39
2023-03-10T06:09:15.084Z,31.39
2023-03-10T06:11:45.224Z,31.40
2023-03-10T06:14:15.174Z,31.39
2023-03-10T06:16:46.999Z,31.42
2023-03-10T06:19:17.091Z,31.42
2023-03-10T06:22:05.280Z,31.43
2023-03-10T06:27:20.801Z,31.43
2023-03-10T06:29:51.868Z,31.44
2023-03-10T06:32:40.761Z,31.44
2023-03-10T06:35:29.344Z,31.47
2023-03-10T06:38:17.809Z,31.46
2023-03-10T06:41:06.340Z,31.48
2023-03-10T06:44:03.710Z,31.49
2023-03-10T06:46:51.951Z,31.49
2023-03-10T06:49:21.995Z,31.50
2023-03-10T06:51:51.861Z,31.51
2023-03-10T06:54:21.720Z,31.53
2023-03-10T06:56:52.502Z,31.53
2023-03-10T06:59:22.606Z,31.50
2023-03-10T07:01:52.509Z,31.51
2023-03-10T07:04:22.465Z,31.53
2023-03-10T07:06:52.438Z,31.52
2023-03-10T07:09:22.514Z,31.54
2023-03-10T07:11:52.582Z,31.54
2023-03-10T07:14:22.472Z,31.53
2023-03-10T07:16:52.448Z,31.55
2023-03-10T07:22:09.120Z,31.59
2023-03-10T07:24:40.394Z,31.58
2023-03-10T07:27:10.307Z,31.59
2023-03-10T07:29:40.355Z,31.61
2023-03-10T07:32:10.549Z,31.58
2023-03-10T07:34:40.736Z,31.61
2023-03-10T07:37:11.791Z,31.60
2023-03-10T07:39:41.929Z,31.59
2023-03-10T07:42:11.860Z,31.61
2023-03-10T07:44:41.915Z,31.62
2023-03-10T07:47:11.869Z,31.61
2023-03-10T07:49:41.985Z,31.61
2023-03-10T07:52:11.897Z,31.59
2023-03-10T07:54:42.020Z,31.61
2023-03-10T07:57:12.084Z,31.63
2023-03-10T07:59:42.989Z,31.61
2023-03-10T08:02:15.819Z,31.63
2023-03-10T08:04:45.926Z,31.64
2023-03-10T08:07:16.107Z,31.63
2023-03-10T08:09:51.284Z,31.65
2023-03-10T08:12:23.235Z,31.67
2023-03-10T08:15:13.200Z,31.67
2023-03-10T08:17:43.345Z,31.68
2023-03-10T08:20:14.013Z,31.65
2023-03-10T08:23:01.972Z,31.68
2023-03-10T08:25:32.084Z,31.68
2023-03-10T08:28:02.027Z,31.68
2023-03-10T08:30:32.084Z,31.66
2023-03-10T08:33:02.057Z,31.66
2023-03-10T08:35:50.541Z,31.67
2023-03-10T08:38:39.006Z,31.67
2023-03-10T08:41:37.457Z,31.67
2023-03-10T08:44:09.017Z,31.67
2023-03-10T08:46:39.224Z,31.67
2023-03-10T08:49:09.420Z,31.69
2023-03-10T08:51:39.657Z,31.68
2023-03-10T08:54:11.254Z,31.70
2023-03-10T08:56:41.799Z,31.69
2023-03-10T08:59:12.054Z,31.70
2023-03-10T09:01:42.764Z,31.70
2023-03-10T09:04:13.293Z,31.71
2023-03-10T09:06:43.840Z,31.68
2023-03-10T09:09:15.752Z,31.68
2023-03-10T09:11:46.557Z,31.69
2023-03-10T09:14:19.061Z,31.68
2023-03-10T09:16:49.239Z,31.68
2023-03-10T09:19:19.124Z,31.69
2023-03-10T09:21:49.940Z,31.68
2023-03-10T09:24:21.605Z,31.66
2023-03-10T09:26:51.731Z,31.68
2023-03-10T09:29:27.081Z,31.68
2023-03-10T09:32:08.596Z,31.67
2023-03-10T09:34:38.775Z,31.67
2023-03-10T09:37:08.836Z,31.69
2023-03-10T09:39:38.785Z,31.70
2023-03-10T09:42:37.943Z,31.70
2023-03-10T09:45:30.271Z,31.71
2023-03-10T09:48:26.438Z,31.69
2023-03-10T09:50:58.837Z,31.70
2023-03-10T09:53:48.609Z,31.70
2023-03-10T09:56:30.048Z,31.69
2023-03-10T09:59:02.390Z,31.68
2023-03-10T10:01:35.418Z,31.69
2023-03-10T10:04:28.040Z,31.68
2023-03-10T10:07:01.029Z,31.68
2023-03-10T10:10:08.131Z,31.69
2023-03-10T10:12:38.638Z,31.68
2023-03-10T10:15:21.283Z,31.67
2023-03-10T10:18:40.462Z,31.67
2023-03-10T10:24:07.134Z,31.69
2023-03-10T10:26:37.208Z,31.69
2023-03-10T10:29:21.076Z,31.70
2023-03-10T10:32:15.253Z,31.70
2023-03-10T10:34:48.145Z,31.70
2023-03-10T10:37:29.505Z,31.69
2023-03-10T10:40:00.069Z,31.69
2023-03-10T10:45:42.525Z,31.68
2023-03-10T10:48:39.117Z,31.67
2023-03-10T10:51:31.092Z,31.67
2023-03-10T10:54:04.044Z,31.66
2023-03-10T10:56:34.465Z,31.66
2023-03-10T10:59:22.810Z,31.67
2023-03-10T11:02:35.846Z,31.67
2023-03-10T11:05:14.982Z,31.67
2023-03-10T11:07:46.217Z,31.68
2023-03-10T11:10:19.933Z,31.68
2023-03-10T11:13:07.842Z,31.67
2023-03-10T11:15:44.166Z,31.67
2023-03-10T11:18:29.220Z,31.67
2023-03-10T11:21:16.010Z,31.66
2023-03-10T11:24:36.428Z,31.67
2023-03-10T11:27:39.706Z,31.64
2023-03-10T11:30:18.947Z,31.66
2023-03-10T11:33:13.384Z,31.65
2023-03-10T11:35:50.211Z,31.65
2023-03-10T11:38:47.266Z,31.66
2023-03-10T11:41:23.935Z,31.64
2023-03-10T11:44:21.856Z,31.65
2023-03-10T11:47:09.083Z,31.67
2023-03-10T11:49:42.375Z,31.67
2023-03-10T11:52:33.375Z,31.69
2023-03-10T11:55:09.388Z,31.70
2023-03-10T11:57:47.883Z,31.69
2023-03-10T12:00:43.896Z,31.71
2023-03-10T12:03:23.882Z,31.72
2023-03-10T12:06:26.726Z,31.72
2023-03-10T12:08:58.892Z,31.70
2023-03-10T12:11:31.466Z,31.69
2023-03-10T12:14:03.923Z,31.69
2023-03-10T12:16:38.991Z,31.68
2023-03-10T12:19:09.344Z,31.68
2023-03-10T12:21:39.550Z,31.66
2023-03-10T12:24:47.137Z,31.68
2023-03-10T12:27:17.231Z,31.69
2023-03-10T12:29:47.607Z,31.70
2023-03-10T12:32:49.335Z,31.71
2023-03-10T12:35:31.711Z,31.70
2023-03-10T12:38:40.468Z,31.70
2023-03-10T12:41:11.225Z,31.71
2023-03-10T12:43:41.621Z,31.70
2023-03-10T12:46:15.255Z,31.72
2023-03-10T12:48:54.209Z,31.71
2023-03-10T12:51:31.283Z,31.70
2023-03-10T12:54:08.358Z,31.68
2023-03-10T12:56:42.374Z,31.70
2023-03-10T12:59:36.125Z,31.68
2023-03-10T13:02:14.965Z,31.70
2023-03-10T13:04:45.670Z,31.69
2023-03-10T13:07:20.239Z,31.68
2023-03-10T13:09:52.282Z,31.66
2023-03-10T13:12:27.743Z,31.69
2023-03-10T13:15:00.735Z,31.69
2023-03-10T13:17:48.882Z,31.70
2023-03-10T13:20:20.252Z,31.70
2023-03-10T13:23:00.460Z,31.69
2023-03-10T13:25:30.699Z,31.70
2023-03-10T13:28:00.586Z,31.70
2023-03-10T13:30:30.602Z,31.70
2023-03-10T13:33:04.714Z,31.70
2023-03-10T14:10:30.592Z,31.22
2023-03-10T14:13:01.245Z,31.31
2023-03-10T14:15:40.393Z,31.39
2023-03-10T14:18:10.625Z,31.44
2023-03-10T14:20:45.424Z,31.50
2023-03-10T14:23:21.612Z,31.50
2023-03-10T14:25:56.788Z,31.53
2023-03-10T14:28:30.240Z,31.50
2023-03-10T14:31:02.106Z,31.41
2023-03-10T14:33:32.891Z,31.48
2023-03-10T14:36:03.246Z,31.49
2023-03-10T14:38:33.667Z,31.56
2023-03-10T14:41:03.894Z,31.45
2023-03-10T14:43:35.218Z,31.54
2023-03-10T14:46:07.457Z,31.55
2023-03-10T14:48:42.162Z,31.51
2023-03-10T14:51:28.938Z,31.55
2023-03-10T14:54:02.997Z,31.53
2023-03-10T14:56:34.434Z,31.62
2023-03-10T14:59:04.671Z,31.48
2023-03-10T15:01:35.043Z,31.52
2023-03-10T15:04:05.430Z,31.60
2023-03-10T15:06:35.564Z,31.64
2023-03-10T15:09:05.592Z,31.65
2023-03-10T15:11:37.562Z,31.67
2023-03-10T15:14:20.195Z,31.63
2023-03-10T15:16:50.468Z,31.63
2023-03-10T15:19:27.770Z,31.62
2023-03-10T15:21:59.903Z,31.65
2023-03-10T15:24:48.244Z,31.62
2023-03-10T15:27:18.396Z,31.64
2023-03-10T15:29:48.424Z,31.58
2023-03-10T15:32:18.449Z,31.57
2023-03-10T15:34:48.574Z,31.55
2023-03-10T15:37:18.827Z,31.50
2023-03-10T15:39:49.027Z,31.52
2023-03-10T15:42:18.990Z,31.51
2023-03-10T15:44:51.864Z,31.51
2023-03-10T15:47:22.145Z,31.51
2023-03-10T15:49:52.224Z,31.61
2023-03-10T15:52:22.802Z,31.74
2023-03-10T15:54:53.343Z,31.72
2023-03-10T15:57:23.940Z,31.72
2023-03-10T15:59:54.281Z,31.67
2023-03-10T16:02:25.111Z,31.72
2023-03-10T16:04:55.298Z,31.68
2023-03-10T16:07:25.467Z,31.67
2023-03-10T16:09:55.672Z,31.63
2023-03-10T16:12:25.698Z,31.63
2023-03-10T16:14:57.695Z,31.61
2023-03-10T16:17:27.994Z,31.60
2023-03-10T16:19:58.353Z,31.60
2023-03-10T16:22:28.663Z,31.59
2023-03-10T16:24:58.712Z,31.57
2023-03-10T16:27:28.685Z,31.56
2023-03-10T16:29:58.716Z,31.46
2023-03-10T16:32:28.753Z,31.42
2023-03-10T16:35:03.592Z,31.38
2023-03-10T16:37:33.825Z,31.35
2023-03-10T16:40:04.319Z,31.35
2023-03-10T16:42:38.886Z,31.34
2023-03-10T16:45:09.843Z,31.34
2023-03-10T16:47:40.289Z,31.33
2023-03-10T16:50:11.095Z,31.33
2023-03-10T16:52:44.470Z,31.31
2023-03-10T16:55:19.361Z,31.31
2023-03-10T16:57:52.451Z,31.30
2023-03-10T17:00:25.172Z,31.28
2023-03-10T17:02:55.254Z,31.28
2023-03-10T17:05:25.918Z,31.26
2023-03-10T17:07:56.480Z,31.27
2023-03-10T17:13:14.324Z,31.24
2023-03-10T17:15:44.265Z,31.23
2023-03-10T17:18:14.286Z,31.22
2023-03-10T17:20:44.277Z,31.21
2023-03-10T17:23:14.383Z,31.22
2023-03-10T17:25:48.282Z,31.21
2023-03-10T17:28:18.402Z,31.19
2023-03-10T17:30:48.752Z,31.21
2023-03-10T17:33:19.340Z,31.21
2023-03-10T17:35:49.535Z,31.22
2023-03-10T17:38:19.678Z,31.22
2023-03-10T17:40:49.588Z,31.22
2023-03-10T17:43:33.444Z,31.22
2023-03-10T17:46:07.309Z,31.23
2023-03-10T17:48:58.101Z,31.21
2023-03-10T17:51:31.269Z,31.22
2023-03-10T17:54:03.976Z,31.20
2023-03-10T17:56:34.120Z,31.20
2023-03-10T17:59:04.038Z,31.20
2023-03-10T18:01:34.220Z,31.18
2023-03-10T18:04:05.687Z,31.18
2023-03-10T18:09:23.498Z,31.17
2023-03-10T18:11:53.664Z,31.16
2023-03-10T18:14:23.577Z,31.16
2023-03-10T18:16:53.634Z,31.12
2023-03-10T18:19:23.903Z,31.12
2023-03-10T18:21:54.760Z,31.13
2023-03-10T18:24:24.997Z,31.13
2023-03-10T18:26:55.077Z,31.14
2023-03-10T18:29:25.174Z,31.12
2023-03-10T18:31:55.366Z,31.15
2023-03-10T18:34:25.385Z,31.14
2023-03-10T18:36:55.311Z,31.12
2023-03-10T18:39:25.589Z,31.17
2023-03-10T18:41:58.554Z,31.12
2023-03-10T18:44:29.863Z,31.10
2023-03-10T18:46:59.674Z,31.11
2023-03-10T18:49:29.500Z,31.11
2023-03-10T18:51:59.483Z,31.10
2023-03-10T18:54:29.505Z,31.08
2023-03-10T18:57:04.083Z,31.06
2023-03-10T18:59:34.522Z,31.04
2023-03-10T19:02:04.716Z,31.03
2023-03-10T19:04:35.011Z,31.07
2023-03-10T19:07:08.422Z,31.04
2023-03-10T19:09:38.470Z,31.04
2023-03-10T19:12:08.989Z,31.05
2023-03-10T19:14:39.261Z,31.03
2023-03-10T19:17:09.170Z,31.03
2023-03-10T19:19:39.317Z,31.04
2023-03-10T19:22:09.328Z,31.04
2023-03-10T19:24:39.489Z,31.03
2023-03-10T19:27:09.588Z,31.03
2023-03-10T19:29:39.598Z,31.02
2023-03-10T19:32:30.002Z,31.02
2023-03-10T19:35:00.020Z,31.01
2023-03-10T19:37:32.355Z,31.02
2023-03-10T19:40:02.619Z,31.02
2023-03-10T19:42:32.688Z,30.99
2023-03-10T19:45:02.874Z,30.98
2023-03-10T19:47:33.839Z,31.01
2023-03-10T19:50:04.095Z,31.00
2023-03-10T19:52:34.702Z,30.97
2023-03-10T19:55:04.825Z,30.98
2023-03-10T19:57:36.837Z,31.01
2023-03-10T20:00:09.568Z,30.99
2023-03-10T20:02:41.348Z,30.99
2023-03-10T20:05:15.698Z,31.00
2023-03-10T20:07:48.905Z,30.97
2023-03-10T20:10:20.283Z,30.97
2023-03-10T20:12:53.396Z,30.97
2023-03-10T20:15:23.470Z,30.98
2023-03-10T20:17:53.468Z,31.00
2023-03-10T20:20:23.716Z,30.97
2023-03-10T20:22:53.873Z,30.94
2023-03-10T20:25:26.208Z,30.94
2023-03-10T20:27:57.158Z,30.95
2023-03-10T20:30:30.231Z,30.95
2023-03-10T20:33:02.081Z,30.94
2023-03-10T20:35:34.819Z,30.95
2023-03-10T20:38:07.653Z,30.93
2023-03-10T20:40:40.585Z,30.92
2023-03-10T20:43:11.964Z,30.96
2023-03-10T20:45:42.938Z,30.93
2023-03-10T20:48:13.245Z,30.95
2023-03-10T20:50:43.506Z,30.92
2023-03-10T20:53:13.560Z,30.93
2023-03-10T20:55:44.391Z,30.94
2023-03-10T20:58:14.671Z,30.95
2023-03-10T21:00:51.508Z,30.92
2023-03-10T21:03:23.601Z,30.94
2023-03-10T21:05:54.102Z,30.91
2023-03-10T21:08:24.101Z,30.90
2023-03-10T21:10:54.436Z,30.90
2023-03-10T21:13:24.795Z,30.90
2023-03-10T21:15:55.477Z,30.91
2023-03-10T21:18:25.632Z,30.89
2023-03-10T21:20:55.576Z,30.89
2023-03-10T21:23:25.910Z,30.91
2023-03-10T21:25:55.912Z,30.91
2023-03-10T21:28:25.755Z,30.88
2023-03-10T21:30:55.843Z,30.90
2023-03-10T21:33:25.914Z,30.87
2023-03-10T21:35:56.391Z,30.87
2023-03-10T21:38:26.375Z,30.89
2023-03-10T21:40:56.464Z,30.87
2023-03-10T21:43:29.359Z,30.87
2023-03-10T21:45:59.473Z,30.84
2023-03-10T21:48:29.907Z,30.84
2023-03-10T21:50:59.998Z,30.84
2023-03-10T21:53:30.064Z,30.81
2023-03-10T21:56:00.463Z,30.82
2023-03-10T21:58:30.750Z,30.82
2023-03-10T22:03:46.662Z,30.83
2023-03-10T22:06:16.956Z,30.82
2023-03-10T22:08:47.096Z,30.83
2023-03-10T22:11:18.905Z,30.84
2023-03-10T22:13:49.129Z,30.83
2023-03-10T22:16:20.400Z,30.81
2023-03-10T22:18:51.569Z,30.80
2023-03-10T22:21:22.027Z,30.78
2023-03-10T22:23:52.214Z,30.79
2023-03-10T22:26:22.510Z,30.82
2023-03-10T22:28:52.553Z,30.78
2023-03-10T22:31:24.389Z,30.78
2023-03-10T22:33:54.473Z,30.78
2023-03-10T22:36:24.412Z,30.77
2023-03-10T22:38:54.456Z,30.75
2023-03-10T22:41:24.345Z,30.74
2023-03-10T22:43:54.823Z,30.74
2023-03-10T22:46:25.598Z,30.73
2023-03-10T22:48:55.634Z,30.76
2023-03-10T22:51:26.062Z,30.74
2023-03-10T22:53:56.296Z,30.74
2023-03-10T22:56:26.202Z,30.73
2023-03-10T22:58:56.382Z,30.72
2023-03-10T23:01:26.564Z,30.72
2023-03-10T23:03:56.732Z,30.74
2023-03-10T23:06:30.864Z,30.74
2023-03-10T23:09:00.986Z,30.70
2023-03-10T23:11:31.064Z,30.72
2023-03-10T23:14:05.742Z,30.71
2023-03-10T23:16:38.483Z,30.70
2023-03-10T23:19:10.060Z,30.72
2023-03-10T23:21:40.270Z,30.69
2023-03-10T23:24:10.363Z,30.68
2023-03-10T23:26:40.211Z,30.68
2023-03-10T23:29:10.350Z,30.68
2023-03-10T23:31:40.428Z,30.68
2023-03-10T23:34:10.458Z,30.66
2023-03-10T23:36:40.426Z,30.72
2023-03-10T23:39:13.345Z,30.71
2023-03-10T23:41:43.494Z,30.68
2023-03-10T23:44:13.501Z,30.63
2023-03-10T23:46:43.429Z,30.62
2023-03-10T23:49:13.306Z,30.62
2023-03-10T23:51:43.223Z,30.57
2023-03-10T23:54:14.215Z,30.53
2023-03-10T23:56:44.252Z,30.52
2023-03-10T23:59:14.085Z,30.53
